Maersk Dispatcher — XJAJ — position and weather

sailwx.info

Track history (hours):
 
Tides and Currents Weather Stations Pressure Air Temp Water Temp Dewpoint Dewpoint Depression Visibility Wind Speed Wind Dir Waves Ship Positions

Maersk Dispatcher

Last reported at 2015-Feb-23 03:23 UTC. Time now 2015-Feb-27 11:44 UTC.
Position N 47°30' W 052°14'.

Length 89 m; draft 6.5 m.

Type: Other ship. MMSI: 316013080.

Date/timePositionNaut miles runAvg speedWind from/ knotsBaromVisibWave heightAir tempDewpointWater temp
2015-Feb-23 03:23N 47°30' W 052°14'1011.7
2015-Feb-23 02:30N 47°33' W 052°29'9 9.3
2015-Feb-23 01:31N 47°34' W 052°42'0 0.0
2015-Feb-23 00:33N 47°34' W 052°42'0 0.0
2015-Feb-22 23:33N 47°34' W 052°42'0 0.0
2015-Feb-22 22:33N 47°34' W 052°42'0 0.1
2015-Feb-22 21:09N 47°34' W 052°42'0 0.0
2015-Feb-22 20:27N 47°34' W 052°42'0 0.2
2015-Feb-22 19:33N 47°34' W 052°42'0 0.0
2015-Feb-22 16:29N 47°34' W 052°42'0 0.0
2015-Feb-22 15:32N 47°34' W 052°42'0 0.0
2015-Feb-22 14:20N 47°34' W 052°42'0 0.0
2015-Feb-22 13:32N 47°34' W 052°42'0 0.0
2015-Feb-22 12:32N 47°34' W 052°42'0 0.0
2015-Feb-22 11:11N 47°34' W 052°42'2 3.1
2015-Feb-22 10:32N 47°34' W 052°39'7 6.9
2015-Feb-22 09:27N 47°27' W 052°36'  
2015-Feb-17 16:09N 47°21' W 052°38'1212.3
2015-Feb-17 15:09N 47°33' W 052°36'4 6.6
2015-Feb-17 14:28N 47°34' W 052°42'0 0.0
2015-Feb-17 13:14N 47°34' W 052°42'0 0.0
2015-Feb-17 11:08N 47°34' W 052°42'0 0.0
2015-Feb-17 10:29N 47°34' W 052°42'0 0.0
2015-Feb-17 09:32N 47°34' W 052°42'0 0.0
2015-Feb-17 08:26N 47°34' W 052°42'0 0.0
2015-Feb-17 07:08N 47°34' W 052°42'0 0.0
2015-Feb-17 06:17N 47°34' W 052°42'0 0.0
2015-Feb-17 05:08N 47°34' W 052°42'0 0.0
2015-Feb-16 18:08N 47°34' W 052°42'0 0.0
2015-Feb-16 16:08N 47°34' W 052°42'0 0.0
2015-Feb-16 15:26N 47°34' W 052°42'0 0.0
2015-Feb-16 14:20N 47°34' W 052°42'0 0.0
2015-Feb-16 11:32N 47°34' W 052°42'0 0.3
2015-Feb-16 10:23N 47°34' W 052°42'0 0.0
2015-Feb-16 09:29N 47°34' W 052°42'0 0.0
2015-Feb-16 08:33N 47°34' W 052°42'0 0.1
2015-Feb-16 07:32N 47°34' W 052°42'0 0.0
2015-Feb-16 06:30N 47°34' W 052°42'0 0.0
2015-Feb-16 05:33N 47°34' W 052°42'0 0.0
2015-Feb-16 04:31N 47°34' W 052°42'0 0.4
2015-Feb-16 03:29N 47°34' W 052°42'9 9.9
2015-Feb-16 02:33N 47°25' W 052°37'5 0.1
2015-Feb-14 01:33N 47°21' W 052°37'11 9.4
2015-Feb-14 00:23N 47°31' W 052°35'6 6.5
2015-Feb-13 23:31N 47°34' W 052°42'0 0.0
2015-Feb-13 22:29N 47°34' W 052°42'0 0.0
2015-Feb-13 21:29N 47°34' W 052°42'0 0.0
2015-Feb-13 20:29N 47°34' W 052°42'0 0.0
2015-Feb-13 19:32N 47°34' W 052°42'0 0.0
2015-Feb-13 18:26N 47°34' W 052°42'0 0.0
2015-Feb-13 17:26N 47°34' W 052°42'0 0.0
2015-Feb-13 16:20N 47°34' W 052°42'0 0.0
2015-Feb-13 15:26N 47°34' W 052°42'0 0.0
2015-Feb-13 14:32N 47°34' W 052°42'0 0.0
2015-Feb-13 13:32N 47°34' W 052°42'0 0.0
2015-Feb-13 12:26N 47°34' W 052°42'0 0.0
2015-Feb-13 11:32N 47°34' W 052°42'0 0.0
2015-Feb-13 10:32N 47°34' W 052°42'0 0.0
2015-Feb-13 09:32N 47°34' W 052°42'0 0.0
2015-Feb-13 08:32N 47°34' W 052°42'0 0.0
2015-Feb-13 07:32N 47°34' W 052°42'0 0.0
2015-Feb-13 06:20N 47°34' W 052°42'0 0.0
2015-Feb-13 05:29N 47°34' W 052°42'0 0.0
2015-Feb-13 04:29N 47°34' W 052°42'0 0.0
2015-Feb-13 03:32N 47°34' W 052°42'  
Track history (hours):
 
Tides and Currents Weather Stations Pressure Air Temp Water Temp Dewpoint Dewpoint Depression Visibility Wind Speed Wind Dir Waves Ship Positions

Maersk Dispatcher

Last reported at 2015-Feb-23 03:23 UTC. Time now 2015-Feb-27 11:44 UTC.
Position N 47°30' W 052°14'.

Length 89 m; draft 6.5 m.

Type: Other ship. MMSI: 316013080.

Date/timePositionNaut miles runAvg speedWind from/ knotsBaromVisibWave heightAir tempDewpointWater temp
2015-Feb-23 03:23N 47°30' W 052°14'1011.7
2015-Feb-23 02:30N 47°33' W 052°29'9 9.3
2015-Feb-23 01:31N 47°34' W 052°42'0 0.0
2015-Feb-23 00:33N 47°34' W 052°42'0 0.0
2015-Feb-22 23:33N 47°34' W 052°42'0 0.0
2015-Feb-22 22:33N 47°34' W 052°42'0 0.1
2015-Feb-22 21:09N 47°34' W 052°42'0 0.0
2015-Feb-22 20:27N 47°34' W 052°42'0 0.2
2015-Feb-22 19:33N 47°34' W 052°42'0 0.0
2015-Feb-22 16:29N 47°34' W 052°42'0 0.0
2015-Feb-22 15:32N 47°34' W 052°42'0 0.0
2015-Feb-22 14:20N 47°34' W 052°42'0 0.0
2015-Feb-22 13:32N 47°34' W 052°42'0 0.0
2015-Feb-22 12:32N 47°34' W 052°42'0 0.0
2015-Feb-22 11:11N 47°34' W 052°42'2 3.1
2015-Feb-22 10:32N 47°34' W 052°39'7 6.9
2015-Feb-22 09:27N 47°27' W 052°36'  
2015-Feb-17 16:09N 47°21' W 052°38'1212.3
2015-Feb-17 15:09N 47°33' W 052°36'4 6.6
2015-Feb-17 14:28N 47°34' W 052°42'0 0.0
2015-Feb-17 13:14N 47°34' W 052°42'0 0.0
2015-Feb-17 11:08N 47°34' W 052°42'0 0.0
2015-Feb-17 10:29N 47°34' W 052°42'0 0.0
2015-Feb-17 09:32N 47°34' W 052°42'0 0.0
2015-Feb-17 08:26N 47°34' W 052°42'0 0.0
2015-Feb-17 07:08N 47°34' W 052°42'0 0.0
2015-Feb-17 06:17N 47°34' W 052°42'0 0.0
2015-Feb-17 05:08N 47°34' W 052°42'0 0.0
2015-Feb-16 18:08N 47°34' W 052°42'0 0.0
2015-Feb-16 16:08N 47°34' W 052°42'0 0.0
2015-Feb-16 15:26N 47°34' W 052°42'0 0.0
2015-Feb-16 14:20N 47°34' W 052°42'0 0.0
2015-Feb-16 11:32N 47°34' W 052°42'0 0.3
2015-Feb-16 10:23N 47°34' W 052°42'0 0.0
2015-Feb-16 09:29N 47°34' W 052°42'0 0.0
2015-Feb-16 08:33N 47°34' W 052°42'0 0.1
2015-Feb-16 07:32N 47°34' W 052°42'0 0.0
2015-Feb-16 06:30N 47°34' W 052°42'0 0.0
2015-Feb-16 05:33N 47°34' W 052°42'0 0.0
2015-Feb-16 04:31N 47°34' W 052°42'0 0.4
2015-Feb-16 03:29N 47°34' W 052°42'9 9.9
2015-Feb-16 02:33N 47°25' W 052°37'5 0.1
2015-Feb-14 01:33N 47°21' W 052°37'11 9.4
2015-Feb-14 00:23N 47°31' W 052°35'6 6.5
2015-Feb-13 23:31N 47°34' W 052°42'0 0.0
2015-Feb-13 22:29N 47°34' W 052°42'0 0.0
2015-Feb-13 21:29N 47°34' W 052°42'0 0.0
2015-Feb-13 20:29N 47°34' W 052°42'0 0.0
2015-Feb-13 19:32N 47°34' W 052°42'0 0.0
2015-Feb-13 18:26N 47°34' W 052°42'0 0.0
2015-Feb-13 17:26N 47°34' W 052°42'0 0.0
2015-Feb-13 16:20N 47°34' W 052°42'0 0.0
2015-Feb-13 15:26N 47°34' W 052°42'0 0.0
2015-Feb-13 14:32N 47°34' W 052°42'0 0.0
2015-Feb-13 13:32N 47°34' W 052°42'0 0.0
2015-Feb-13 12:26N 47°34' W 052°42'0 0.0
2015-Feb-13 11:32N 47°34' W 052°42'0 0.0
2015-Feb-13 10:32N 47°34' W 052°42'0 0.0
2015-Feb-13 09:32N 47°34' W 052°42'0 0.0
2015-Feb-13 08:32N 47°34' W 052°42'0 0.0
2015-Feb-13 07:32N 47°34' W 052°42'0 0.0
2015-Feb-13 06:20N 47°34' W 052°42'0 0.0
2015-Feb-13 05:29N 47°34' W 052°42'0 0.0
2015-Feb-13 04:29N 47°34' W 052°42'0 0.0
2015-Feb-13 03:32N 47°34' W 052°42'  

Dump ship's entire track history